sensor_id;sensor_type;location;lat;lon;timestamp;pressure;altitude;pressure_sealevel;temperature
71564;BMP180;59391;52.504;13.438;2023-06-04T00:01:57;101824.00;;;19.30
71564;BMP180;59391;52.504;13.438;2023-06-04T00:04:25;101830.00;;;19.20
71564;BMP180;59391;52.504;13.438;2023-06-04T00:06:51;101825.00;;;19.20
71564;BMP180;59391;52.504;13.438;2023-06-04T00:09:17;101819.00;;;19.10
71564;BMP180;59391;52.504;13.438;2023-06-04T00:11:42;101824.00;;;19.10
71564;BMP180;59391;52.504;13.438;2023-06-04T00:14:08;101814.00;;;19.10
71564;BMP180;59391;52.504;13.438;2023-06-04T00:16:34;101821.00;;;19.00
71564;BMP180;59391;52.504;13.438;2023-06-04T00:19:01;101823.00;;;19.00
71564;BMP180;59391;52.504;13.438;2023-06-04T00:21:28;101807.00;;;18.90
71564;BMP180;59391;52.504;13.438;2023-06-04T00:23:54;101814.00;;;18.90
71564;BMP180;59391;52.504;13.438;2023-06-04T00:26:19;101815.00;;;18.80
71564;BMP180;59391;52.504;13.438;2023-06-04T00:28:45;101810.00;;;18.80
71564;BMP180;59391;52.504;13.438;2023-06-04T00:31:11;101811.00;;;18.80
71564;BMP180;59391;52.504;13.438;2023-06-04T00:33:39;101810.00;;;18.70
71564;BMP180;59391;52.504;13.438;2023-06-04T00:36:04;101808.00;;;18.70
71564;BMP180;59391;52.504;13.438;2023-06-04T00:38:30;101806.00;;;18.60
71564;BMP180;59391;52.504;13.438;2023-06-04T00:40:59;101801.00;;;18.60
71564;BMP180;59391;52.504;13.438;2023-06-04T00:43:25;101810.00;;;18.60
71564;BMP180;59391;52.504;13.438;2023-06-04T00:45:54;101807.00;;;18.60
71564;BMP180;59391;52.504;13.438;2023-06-04T00:48:24;101805.00;;;18.50
71564;BMP180;59391;52.504;13.438;2023-06-04T00:50:53;101810.00;;;18.50
71564;BMP180;59391;52.504;13.438;2023-06-04T00:53:26;101801.00;;;18.50
71564;BMP180;59391;52.504;13.438;2023-06-04T00:55:51;101801.00;;;18.50
71564;BMP180;59391;52.504;13.438;2023-06-04T00:58:20;101811.00;;;18.50
71564;BMP180;59391;52.504;13.438;2023-06-04T01:00:46;101802.00;;;18.40
71564;BMP180;59391;52.504;13.438;2023-06-04T01:03:17;101809.00;;;18.40
71564;BMP180;59391;52.504;13.438;2023-06-04T01:08:49;101809.00;;;18.40
71564;BMP180;59391;52.504;13.438;2023-06-04T01:11:14;101807.00;;;18.40
71564;BMP180;59391;52.504;13.438;2023-06-04T01:13:40;101803.00;;;18.40
71564;BMP180;59391;52.504;13.438;2023-06-04T01:16:07;101808.00;;;18.40
71564;BMP180;59391;52.504;13.438;2023-06-04T01:18:38;101804.00;;;18.40
71564;BMP180;59391;52.504;13.438;2023-06-04T01:21:08;101800.00;;;18.40
71564;BMP180;59391;52.504;13.438;2023-06-04T01:23:49;101797.00;;;18.40
71564;BMP180;59391;52.504;13.438;2023-06-04T01:26:26;101802.00;;;18.40
71564;BMP180;59391;52.504;13.438;2023-06-04T01:28:54;101797.00;;;18.30
71564;BMP180;59391;52.504;13.438;2023-06-04T01:31:20;101802.00;;;18.30
71564;BMP180;59391;52.504;13.438;2023-06-04T01:33:54;101804.00;;;18.30
71564;BMP180;59391;52.504;13.438;2023-06-04T01:36:21;101804.00;;;18.30
71564;BMP180;59391;52.504;13.438;2023-06-04T01:38:47;101801.00;;;18.30
71564;BMP180;59391;52.504;13.438;2023-06-04T01:41:12;101794.00;;;18.20
71564;BMP180;59391;52.504;13.438;2023-06-04T01:43:38;101797.00;;;18.20
71564;BMP180;59391;52.504;13.438;2023-06-04T01:46:03;101793.00;;;18.20
71564;BMP180;59391;52.504;13.438;2023-06-04T01:48:29;101800.00;;;18.20
71564;BMP180;59391;52.504;13.438;2023-06-04T01:50:57;101784.00;;;18.10
71564;BMP180;59391;52.504;13.438;2023-06-04T01:53:23;101795.00;;;18.10
71564;BMP180;59391;52.504;13.438;2023-06-04T01:55:49;101785.00;;;18.10
71564;BMP180;59391;52.504;13.438;2023-06-04T01:58:16;101796.00;;;18.10
71564;BMP180;59391;52.504;13.438;2023-06-04T02:00:43;101788.00;;;18.10
71564;BMP180;59391;52.504;13.438;2023-06-04T02:03:09;101779.00;;;18.10
71564;BMP180;59391;52.504;13.438;2023-06-04T02:05:36;101783.00;;;18.10
71564;BMP180;59391;52.504;13.438;2023-06-04T02:08:02;101783.00;;;18.00
71564;BMP180;59391;52.504;13.438;2023-06-04T02:10:30;101775.00;;;18.00
71564;BMP180;59391;52.504;13.438;2023-06-04T02:12:59;101783.00;;;18.00
71564;BMP180;59391;52.504;13.438;2023-06-04T02:15:27;101785.00;;;18.00
71564;BMP180;59391;52.504;13.438;2023-06-04T02:18:11;101777.00;;;17.90
71564;BMP180;59391;52.504;13.438;2023-06-04T02:20:41;101789.00;;;17.90
71564;BMP180;59391;52.504;13.438;2023-06-04T02:23:07;101774.00;;;17.90
71564;BMP180;59391;52.504;13.438;2023-06-04T02:25:32;101774.00;;;17.90
71564;BMP180;59391;52.504;13.438;2023-06-04T02:27:58;101779.00;;;17.90
71564;BMP180;59391;52.504;13.438;2023-06-04T02:30:24;101778.00;;;17.90
71564;BMP180;59391;52.504;13.438;2023-06-04T02:32:49;101779.00;;;17.80
71564;BMP180;59391;52.504;13.438;2023-06-04T02:35:16;101780.00;;;17.80
71564;BMP180;59391;52.504;13.438;2023-06-04T02:37:43;101778.00;;;17.80
71564;BMP180;59391;52.504;13.438;2023-06-04T02:40:10;101777.00;;;17.80
71564;BMP180;59391;52.504;13.438;2023-06-04T02:42:36;101781.00;;;17.70
71564;BMP180;59391;52.504;13.438;2023-06-04T02:45:01;101784.00;;;17.70
71564;BMP180;59391;52.504;13.438;2023-06-04T02:47:27;101789.00;;;17.70
71564;BMP180;59391;52.504;13.438;2023-06-04T02:49:53;101791.00;;;17.70
71564;BMP180;59391;52.504;13.438;2023-06-04T02:52:18;101788.00;;;17.60
71564;BMP180;59391;52.504;13.438;2023-06-04T02:54:46;101788.00;;;17.60
71564;BMP180;59391;52.504;13.438;2023-06-04T02:57:12;101779.00;;;17.60
71564;BMP180;59391;52.504;13.438;2023-06-04T02:59:37;101793.00;;;17.60
71564;BMP180;59391;52.504;13.438;2023-06-04T03:02:04;101792.00;;;17.50
71564;BMP180;59391;52.504;13.438;2023-06-04T03:04:30;101786.00;;;17.50
71564;BMP180;59391;52.504;13.438;2023-06-04T03:07:01;101794.00;;;17.50
71564;BMP180;59391;52.504;13.438;2023-06-04T03:09:28;101781.00;;;17.50
71564;BMP180;59391;52.504;13.438;2023-06-04T03:11:59;101786.00;;;17.50
71564;BMP180;59391;52.504;13.438;2023-06-04T03:14:24;101786.00;;;17.50
71564;BMP180;59391;52.504;13.438;2023-06-04T03:17:02;101785.00;;;17.40
71564;BMP180;59391;52.504;13.438;2023-06-04T03:19:35;101785.00;;;17.40
71564;BMP180;59391;52.504;13.438;2023-06-04T03:22:01;101780.00;;;17.40
71564;BMP180;59391;52.504;13.438;2023-06-04T03:24:39;101793.00;;;17.40
71564;BMP180;59391;52.504;13.438;2023-06-04T03:27:06;101785.00;;;17.40
71564;BMP180;59391;52.504;13.438;2023-06-04T03:29:33;101776.00;;;17.40
71564;BMP180;59391;52.504;13.438;2023-06-04T03:31:59;101781.00;;;17.40
71564;BMP180;59391;52.504;13.438;2023-06-04T03:34:25;101790.00;;;17.40
71564;BMP180;59391;52.504;13.438;2023-06-04T03:36:54;101794.00;;;17.40
71564;BMP180;59391;52.504;13.438;2023-06-04T03:39:21;101789.00;;;17.30
71564;BMP180;59391;52.504;13.438;2023-06-04T03:41:47;101791.00;;;17.30
71564;BMP180;59391;52.504;13.438;2023-06-04T03:44:15;101793.00;;;17.30
71564;BMP180;59391;52.504;13.438;2023-06-04T03:46:44;101792.00;;;17.30
71564;BMP180;59391;52.504;13.438;2023-06-04T03:49:10;101793.00;;;17.30
71564;BMP180;59391;52.504;13.438;2023-06-04T03:51:37;101790.00;;;17.30
71564;BMP180;59391;52.504;13.438;2023-06-04T03:54:03;101778.00;;;17.30
71564;BMP180;59391;52.504;13.438;2023-06-04T03:56:29;101778.00;;;17.30
71564;BMP180;59391;52.504;13.438;2023-06-04T03:58:55;101793.00;;;17.30
71564;BMP180;59391;52.504;13.438;2023-06-04T04:01:21;101793.00;;;17.30
71564;BMP180;59391;52.504;13.438;2023-06-04T04:03:49;101799.00;;;17.20
71564;BMP180;59391;52.504;13.438;2023-06-04T04:06:15;101792.00;;;17.20
71564;BMP180;59391;52.504;13.438;2023-06-04T04:08:44;101789.00;;;17.20
71564;BMP180;59391;52.504;13.438;2023-06-04T04:11:14;101795.00;;;17.20
71564;BMP180;59391;52.504;13.438;2023-06-04T04:13:40;101792.00;;;17.20
71564;BMP180;59391;52.504;13.438;2023-06-04T04:16:06;101796.00;;;17.20
71564;BMP180;59391;52.504;13.438;2023-06-04T04:18:36;101794.00;;;17.20
71564;BMP180;59391;52.504;13.438;2023-06-04T04:21:03;101792.00;;;17.20
71564;BMP180;59391;52.504;13.438;2023-06-04T04:23:30;101795.00;;;17.20
71564;BMP180;59391;52.504;13.438;2023-06-04T04:25:58;101793.00;;;17.20
71564;BMP180;59391;52.504;13.438;2023-06-04T04:28:25;101795.00;;;17.20
71564;BMP180;59391;52.504;13.438;2023-06-04T04:30:57;101806.00;;;17.20
71564;BMP180;59391;52.504;13.438;2023-06-04T04:33:23;101809.00;;;17.20
71564;BMP180;59391;52.504;13.438;2023-06-04T04:35:52;101801.00;;;17.20
71564;BMP180;59391;52.504;13.438;2023-06-04T04:38:20;101803.00;;;17.20
71564;BMP180;59391;52.504;13.438;2023-06-04T04:40:49;101804.00;;;17.20
71564;BMP180;59391;52.504;13.438;2023-06-04T04:43:28;101800.00;;;17.20
71564;BMP180;59391;52.504;13.438;2023-06-04T04:45:54;101796.00;;;17.20
71564;BMP180;59391;52.504;13.438;2023-06-04T04:48:20;101802.00;;;17.20
71564;BMP180;59391;52.504;13.438;2023-06-04T04:50:45;101804.00;;;17.30
71564;BMP180;59391;52.504;13.438;2023-06-04T04:53:11;101806.00;;;17.30
71564;BMP180;59391;52.504;13.438;2023-06-04T04:55:37;101808.00;;;17.30
71564;BMP180;59391;52.504;13.438;2023-06-04T04:58:02;101812.00;;;17.40
71564;BMP180;59391;52.504;13.438;2023-06-04T05:00:29;101814.00;;;17.40
71564;BMP180;59391;52.504;13.438;2023-06-04T05:02:55;101809.00;;;17.40
71564;BMP180;59391;52.504;13.438;2023-06-04T05:05:21;101812.00;;;17.50
71564;BMP180;59391;52.504;13.438;2023-06-04T05:07:47;101805.00;;;17.50
71564;BMP180;59391;52.504;13.438;2023-06-04T05:10:12;101813.00;;;17.60
71564;BMP180;59391;52.504;13.438;2023-06-04T05:12:38;101816.00;;;17.60
71564;BMP180;59391;52.504;13.438;2023-06-04T05:15:04;101809.00;;;17.70
71564;BMP180;59391;52.504;13.438;2023-06-04T05:17:30;101808.00;;;17.70
71564;BMP180;59391;52.504;13.438;2023-06-04T05:19:56;101818.00;;;17.70
71564;BMP180;59391;52.504;13.438;2023-06-04T05:22:37;101812.00;;;17.80
71564;BMP180;59391;52.504;13.438;2023-06-04T05:25:03;101814.00;;;17.80
71564;BMP180;59391;52.504;13.438;2023-06-04T05:27:29;101818.00;;;17.90
71564;BMP180;59391;52.504;13.438;2023-06-04T05:29:57;101823.00;;;17.90
71564;BMP180;59391;52.504;13.438;2023-06-04T05:32:23;101823.00;;;17.90
71564;BMP180;59391;52.504;13.438;2023-06-04T05:34:49;101816.00;;;18.00
71564;BMP180;59391;52.504;13.438;2023-06-04T05:37:15;101818.00;;;18.00
71564;BMP180;59391;52.504;13.438;2023-06-04T05:39:43;101818.00;;;18.10
71564;BMP180;59391;52.504;13.438;2023-06-04T05:42:09;101823.00;;;18.10
71564;BMP180;59391;52.504;13.438;2023-06-04T05:44:35;101823.00;;;18.20
71564;BMP180;59391;52.504;13.438;2023-06-04T05:47:00;101827.00;;;18.30
71564;BMP180;59391;52.504;13.438;2023-06-04T05:49:26;101830.00;;;18.30
71564;BMP180;59391;52.504;13.438;2023-06-04T05:51:52;101828.00;;;18.40
71564;BMP180;59391;52.504;13.438;2023-06-04T05:54:17;101831.00;;;18.50
71564;BMP180;59391;52.504;13.438;2023-06-04T05:56:43;101828.00;;;18.50
71564;BMP180;59391;52.504;13.438;2023-06-04T05:59:09;101824.00;;;18.60
71564;BMP180;59391;52.504;13.438;2023-06-04T06:01:34;101827.00;;;18.60
71564;BMP180;59391;52.504;13.438;2023-06-04T06:04:00;101832.00;;;18.70
71564;BMP180;59391;52.504;13.438;2023-06-04T06:06:26;101823.00;;;18.70
71564;BMP180;59391;52.504;13.438;2023-06-04T06:08:51;101837.00;;;18.80
71564;BMP180;59391;52.504;13.438;2023-06-04T06:11:18;101832.00;;;18.90
71564;BMP180;59391;52.504;13.438;2023-06-04T06:13:44;101826.00;;;18.90
71564;BMP180;59391;52.504;13.438;2023-06-04T06:16:09;101840.00;;;19.00
71564;BMP180;59391;52.504;13.438;2023-06-04T06:18:35;101826.00;;;19.10
71564;BMP180;59391;52.504;13.438;2023-06-04T06:21:00;101838.00;;;19.10
71564;BMP180;59391;52.504;13.438;2023-06-04T06:23:26;101849.00;;;19.20
71564;BMP180;59391;52.504;13.438;2023-06-04T06:25:52;101840.00;;;19.20
71564;BMP180;59391;52.504;13.438;2023-06-04T06:28:18;101847.00;;;19.30
71564;BMP180;59391;52.504;13.438;2023-06-04T06:30:44;101842.00;;;19.40
71564;BMP180;59391;52.504;13.438;2023-06-04T06:33:10;101854.00;;;19.40
71564;BMP180;59391;52.504;13.438;2023-06-04T06:35:36;101850.00;;;19.50
71564;BMP180;59391;52.504;13.438;2023-06-04T06:38:02;101844.00;;;19.60
71564;BMP180;59391;52.504;13.438;2023-06-04T06:40:27;101844.00;;;19.60
71564;BMP180;59391;52.504;13.438;2023-06-04T06:42:55;101852.00;;;19.70
71564;BMP180;59391;52.504;13.438;2023-06-04T06:45:21;101858.00;;;19.70
71564;BMP180;59391;52.504;13.438;2023-06-04T06:47:47;101857.00;;;19.80
71564;BMP180;59391;52.504;13.438;2023-06-04T06:50:13;101851.00;;;19.90
71564;BMP180;59391;52.504;13.438;2023-06-04T06:52:38;101851.00;;;19.90
71564;BMP180;59391;52.504;13.438;2023-06-04T06:55:05;101861.00;;;20.00
71564;BMP180;59391;52.504;13.438;2023-06-04T06:57:30;101845.00;;;20.00
71564;BMP180;59391;52.504;13.438;2023-06-04T06:59:56;101851.00;;;20.10
71564;BMP180;59391;52.504;13.438;2023-06-04T07:02:22;101851.00;;;20.20
71564;BMP180;59391;52.504;13.438;2023-06-04T07:04:48;101855.00;;;20.20
71564;BMP180;59391;52.504;13.438;2023-06-04T07:07:13;101843.00;;;20.30
71564;BMP180;59391;52.504;13.438;2023-06-04T07:09:39;101847.00;;;20.40
71564;BMP180;59391;52.504;13.438;2023-06-04T07:12:05;101851.00;;;20.40
71564;BMP180;59391;52.504;13.438;2023-06-04T07:14:32;101853.00;;;20.50
71564;BMP180;59391;52.504;13.438;2023-06-04T07:16:57;101850.00;;;20.60
71564;BMP180;59391;52.504;13.438;2023-06-04T07:19:23;101848.00;;;20.60
71564;BMP180;59391;52.504;13.438;2023-06-04T07:21:50;101853.00;;;20.70
71564;BMP180;59391;52.504;13.438;2023-06-04T07:24:15;101859.00;;;20.70
71564;BMP180;59391;52.504;13.438;2023-06-04T07:26:41;101859.00;;;20.80
71564;BMP180;59391;52.504;13.438;2023-06-04T07:29:07;101849.00;;;20.90
71564;BMP180;59391;52.504;13.438;2023-06-04T07:31:33;101845.00;;;20.90
71564;BMP180;59391;52.504;13.438;2023-06-04T07:33:58;101853.00;;;21.00
71564;BMP180;59391;52.504;13.438;2023-06-04T07:36:24;101855.00;;;21.10
71564;BMP180;59391;52.504;13.438;2023-06-04T07:38:49;101855.00;;;21.10
71564;BMP180;59391;52.504;13.438;2023-06-04T07:41:15;101861.00;;;21.20
71564;BMP180;59391;52.504;13.438;2023-06-04T07:43:43;101860.00;;;21.30
71564;BMP180;59391;52.504;13.438;2023-06-04T07:46:08;101862.00;;;21.40
71564;BMP180;59391;52.504;13.438;2023-06-04T07:48:35;101855.00;;;21.40
71564;BMP180;59391;52.504;13.438;2023-06-04T07:51:02;101852.00;;;21.50
71564;BMP180;59391;52.504;13.438;2023-06-04T07:53:30;101846.00;;;21.60
71564;BMP180;59391;52.504;13.438;2023-06-04T07:55:56;101846.00;;;21.70
71564;BMP180;59391;52.504;13.438;2023-06-04T07:58:23;101846.00;;;21.80
71564;BMP180;59391;52.504;13.438;2023-06-04T08:00:48;101850.00;;;21.90
71564;BMP180;59391;52.504;13.438;2023-06-04T08:03:14;101846.00;;;22.00
71564;BMP180;59391;52.504;13.438;2023-06-04T08:05:43;101853.00;;;22.10
71564;BMP180;59391;52.504;13.438;2023-06-04T08:08:09;101848.00;;;22.20
71564;BMP180;59391;52.504;13.438;2023-06-04T08:10:35;101850.00;;;22.30
71564;BMP180;59391;52.504;13.438;2023-06-04T08:13:00;101848.00;;;22.40
71564;BMP180;59391;52.504;13.438;2023-06-04T08:15:26;101852.00;;;22.50
71564;BMP180;59391;52.504;13.438;2023-06-04T08:17:52;101859.00;;;22.60
71564;BMP180;59391;52.504;13.438;2023-06-04T08:20:17;101854.00;;;22.80
71564;BMP180;59391;52.504;13.438;2023-06-04T08:22:43;101857.00;;;22.90
71564;BMP180;59391;52.504;13.438;2023-06-04T08:25:09;101854.00;;;23.00
71564;BMP180;59391;52.504;13.438;2023-06-04T08:27:35;101842.00;;;23.00
71564;BMP180;59391;52.504;13.438;2023-06-04T08:30:01;101852.00;;;23.00
71564;BMP180;59391;52.504;13.438;2023-06-04T08:32:27;101851.00;;;23.00
71564;BMP180;59391;52.504;13.438;2023-06-04T08:34:54;101851.00;;;23.10
71564;BMP180;59391;52.504;13.438;2023-06-04T08:37:20;101853.00;;;23.30
71564;BMP180;59391;52.504;13.438;2023-06-04T08:39:46;101852.00;;;23.40
71564;BMP180;59391;52.504;13.438;2023-06-04T08:42:22;101855.00;;;23.60
71564;BMP180;59391;52.504;13.438;2023-06-04T08:44:51;101852.00;;;23.70
71564;BMP180;59391;52.504;13.438;2023-06-04T08:47:19;101859.00;;;23.90
71564;BMP180;59391;52.504;13.438;2023-06-04T08:49:50;101869.00;;;24.30
71564;BMP180;59391;52.504;13.438;2023-06-04T08:52:16;101861.00;;;24.80
71564;BMP180;59391;52.504;13.438;2023-06-04T08:54:43;101862.00;;;25.40
71564;BMP180;59391;52.504;13.438;2023-06-04T08:57:09;101863.00;;;26.00
71564;BMP180;59391;52.504;13.438;2023-06-04T08:59:36;101863.00;;;26.60
71564;BMP180;59391;52.504;13.438;2023-06-04T09:02:03;101860.00;;;27.20
71564;BMP180;59391;52.504;13.438;2023-06-04T09:04:31;101861.00;;;27.90
71564;BMP180;59391;52.504;13.438;2023-06-04T09:07:03;101870.00;;;28.40
71564;BMP180;59391;52.504;13.438;2023-06-04T09:09:30;101861.00;;;29.00
71564;BMP180;59391;52.504;13.438;2023-06-04T09:11:57;101865.00;;;29.40
71564;BMP180;59391;52.504;13.438;2023-06-04T09:14:31;101870.00;;;29.90
71564;BMP180;59391;52.504;13.438;2023-06-04T09:16:57;101870.00;;;30.20
71564;BMP180;59391;52.504;13.438;2023-06-04T09:19:29;101871.00;;;30.50
71564;BMP180;59391;52.504;13.438;2023-06-04T09:21:58;101858.00;;;30.70
71564;BMP180;59391;52.504;13.438;2023-06-04T09:24:37;101869.00;;;31.00
71564;BMP180;59391;52.504;13.438;2023-06-04T09:27:10;101859.00;;;31.40
71564;BMP180;59391;52.504;13.438;2023-06-04T09:29:37;101873.00;;;31.70
71564;BMP180;59391;52.504;13.438;2023-06-04T09:32:03;101879.00;;;32.10
71564;BMP180;59391;52.504;13.438;2023-06-04T09:34:29;101883.00;;;32.40
71564;BMP180;59391;52.504;13.438;2023-06-04T09:36:55;101878.00;;;32.60
71564;BMP180;59391;52.504;13.438;2023-06-04T09:39:22;101870.00;;;32.80
71564;BMP180;59391;52.504;13.438;2023-06-04T09:42:01;101873.00;;;33.00
71564;BMP180;59391;52.504;13.438;2023-06-04T09:44:42;101872.00;;;33.10
71564;BMP180;59391;52.504;13.438;2023-06-04T09:47:08;101870.00;;;33.20
71564;BMP180;59391;52.504;13.438;2023-06-04T09:49:47;101875.00;;;33.30
71564;BMP180;59391;52.504;13.438;2023-06-04T09:52:13;101870.00;;;33.00
71564;BMP180;59391;52.504;13.438;2023-06-04T09:54:41;101872.00;;;32.70
71564;BMP180;59391;52.504;13.438;2023-06-04T09:57:19;101875.00;;;32.50
71564;BMP180;59391;52.504;13.438;2023-06-04T09:59:49;101876.00;;;32.40
71564;BMP180;59391;52.504;13.438;2023-06-04T10:02:20;101881.00;;;32.20
71564;BMP180;59391;52.504;13.438;2023-06-04T10:04:59;101874.00;;;32.00
71564;BMP180;59391;52.504;13.438;2023-06-04T10:07:30;101854.00;;;32.10
71564;BMP180;59391;52.504;13.438;2023-06-04T10:09:56;101862.00;;;32.20
71564;BMP180;59391;52.504;13.438;2023-06-04T10:12:37;101861.00;;;32.30
71564;BMP180;59391;52.504;13.438;2023-06-04T10:15:10;101869.00;;;32.30
71564;BMP180;59391;52.504;13.438;2023-06-04T10:17:37;101860.00;;;32.60
71564;BMP180;59391;52.504;13.438;2023-06-04T10:20:03;101862.00;;;32.60
71564;BMP180;59391;52.504;13.438;2023-06-04T10:22:34;101859.00;;;32.80
71564;BMP180;59391;52.504;13.438;2023-06-04T10:25:01;101861.00;;;32.80
71564;BMP180;59391;52.504;13.438;2023-06-04T10:27:33;101858.00;;;32.80
71564;BMP180;59391;52.504;13.438;2023-06-04T10:30:02;101873.00;;;32.90
71564;BMP180;59391;52.504;13.438;2023-06-04T10:32:29;101871.00;;;33.00
71564;BMP180;59391;52.504;13.438;2023-06-04T10:34:55;101879.00;;;33.10
71564;BMP180;59391;52.504;13.438;2023-06-04T10:37:25;101876.00;;;33.10
71564;BMP180;59391;52.504;13.438;2023-06-04T10:39:58;101871.00;;;33.10
71564;BMP180;59391;52.504;13.438;2023-06-04T10:42:36;101860.00;;;33.10
71564;BMP180;59391;52.504;13.438;2023-06-04T10:45:02;101870.00;;;33.10
71564;BMP180;59391;52.504;13.438;2023-06-04T10:47:28;101874.00;;;33.30
71564;BMP180;59391;52.504;13.438;2023-06-04T10:50:11;101872.00;;;33.40
71564;BMP180;59391;52.504;13.438;2023-06-04T10:52:54;101872.00;;;33.70
71564;BMP180;59391;52.504;13.438;2023-06-04T10:55:20;101873.00;;;34.00
71564;BMP180;59391;52.504;13.438;2023-06-04T10:58:00;101872.00;;;34.20
71564;BMP180;59391;52.504;13.438;2023-06-04T11:00:44;101878.00;;;34.30
71564;BMP180;59391;52.504;13.438;2023-06-04T11:03:15;101872.00;;;34.40
71564;BMP180;59391;52.504;13.438;2023-06-04T11:05:46;101858.00;;;34.30
71564;BMP180;59391;52.504;13.438;2023-06-04T11:08:14;101862.00;;;34.30
71564;BMP180;59391;52.504;13.438;2023-06-04T11:10:48;101856.00;;;34.40
71564;BMP180;59391;52.504;13.438;2023-06-04T11:13:14;101855.00;;;34.80
71564;BMP180;59391;52.504;13.438;2023-06-04T11:15:46;101851.00;;;35.00
71564;BMP180;59391;52.504;13.438;2023-06-04T11:18:22;101846.00;;;35.20
71564;BMP180;59391;52.504;13.438;2023-06-04T11:20:58;101862.00;;;35.30
71564;BMP180;59391;52.504;13.438;2023-06-04T11:23:24;101847.00;;;35.30
71564;BMP180;59391;52.504;13.438;2023-06-04T11:25:52;101843.00;;;35.20
71564;BMP180;59391;52.504;13.438;2023-06-04T11:28:19;101843.00;;;34.80
71564;BMP180;59391;52.504;13.438;2023-06-04T11:30:58;101857.00;;;34.30
71564;BMP180;59391;52.504;13.438;2023-06-04T11:33:24;101851.00;;;34.00
71564;BMP180;59391;52.504;13.438;2023-06-04T11:35:55;101841.00;;;33.90
71564;BMP180;59391;52.504;13.438;2023-06-04T11:38:21;101849.00;;;33.70
71564;BMP180;59391;52.504;13.438;2023-06-04T11:40:58;101841.00;;;33.60
71564;BMP180;59391;52.504;13.438;2023-06-04T11:43:27;101838.00;;;33.70
71564;BMP180;59391;52.504;13.438;2023-06-04T11:45:54;101840.00;;;33.90
71564;BMP180;59391;52.504;13.438;2023-06-04T11:48:20;101840.00;;;34.10
71564;BMP180;59391;52.504;13.438;2023-06-04T11:50:46;101838.00;;;34.40
71564;BMP180;59391;52.504;13.438;2023-06-04T11:53:12;101831.00;;;34.70
71564;BMP180;59391;52.504;13.438;2023-06-04T11:55:39;101844.00;;;34.90
71564;BMP180;59391;52.504;13.438;2023-06-04T11:58:08;101842.00;;;34.90
71564;BMP180;59391;52.504;13.438;2023-06-04T12:00:35;101843.00;;;35.10
71564;BMP180;59391;52.504;13.438;2023-06-04T12:03:01;101852.00;;;35.30
71564;BMP180;59391;52.504;13.438;2023-06-04T12:05:31;101838.00;;;35.50
71564;BMP180;59391;52.504;13.438;2023-06-04T12:08:10;101833.00;;;35.50
71564;BMP180;59391;52.504;13.438;2023-06-04T12:10:42;101837.00;;;35.50
71564;BMP180;59391;52.504;13.438;2023-06-04T12:13:08;101845.00;;;35.20
71564;BMP180;59391;52.504;13.438;2023-06-04T12:15:34;101833.00;;;34.60
71564;BMP180;59391;52.504;13.438;2023-06-04T12:18:00;101822.00;;;33.90
71564;BMP180;59391;52.504;13.438;2023-06-04T12:20:40;101841.00;;;33.50
71564;BMP180;59391;52.504;13.438;2023-06-04T12:23:07;101831.00;;;33.20
71564;BMP180;59391;52.504;13.438;2023-06-04T12:25:34;101829.00;;;33.00
71564;BMP180;59391;52.504;13.438;2023-06-04T12:28:02;101818.00;;;32.80
71564;BMP180;59391;52.504;13.438;2023-06-04T12:30:40;101819.00;;;32.70
71564;BMP180;59391;52.504;13.438;2023-06-04T12:33:06;101825.00;;;32.60
71564;BMP180;59391;52.504;13.438;2023-06-04T12:35:33;101819.00;;;32.70
71564;BMP180;59391;52.504;13.438;2023-06-04T12:37:58;101817.00;;;33.00
71564;BMP180;59391;52.504;13.438;2023-06-04T12:40:24;101821.00;;;33.40
71564;BMP180;59391;52.504;13.438;2023-06-04T12:42:50;101812.00;;;33.70
71564;BMP180;59391;52.504;13.438;2023-06-04T12:45:17;101820.00;;;34.00
71564;BMP180;59391;52.504;13.438;2023-06-04T12:47:42;101817.00;;;34.30
71564;BMP180;59391;52.504;13.438;2023-06-04T12:50:08;101816.00;;;34.70
71564;BMP180;59391;52.504;13.438;2023-06-04T12:52:37;101823.00;;;35.00
71564;BMP180;59391;52.504;13.438;2023-06-04T12:55:03;101816.00;;;35.30
71564;BMP180;59391;52.504;13.438;2023-06-04T12:57:29;101822.00;;;35.60
71564;BMP180;59391;52.504;13.438;2023-06-04T12:59:57;101820.00;;;35.80
71564;BMP180;59391;52.504;13.438;2023-06-04T13:02:26;101822.00;;;35.90
71564;BMP180;59391;52.504;13.438;2023-06-04T13:04:52;101821.00;;;35.80
71564;BMP180;59391;52.504;13.438;2023-06-04T13:07:21;101818.00;;;35.40
71564;BMP180;59391;52.504;13.438;2023-06-04T13:09:47;101819.00;;;35.10
71564;BMP180;59391;52.504;13.438;2023-06-04T13:12:13;101817.00;;;34.70
71564;BMP180;59391;52.504;13.438;2023-06-04T13:14:39;101815.00;;;34.30
71564;BMP180;59391;52.504;13.438;2023-06-04T13:17:12;101818.00;;;34.00
71564;BMP180;59391;52.504;13.438;2023-06-04T13:19:38;101817.00;;;33.80
71564;BMP180;59391;52.504;13.438;2023-06-04T13:22:04;101814.00;;;33.50
71564;BMP180;59391;52.504;13.438;2023-06-04T13:24:30;101817.00;;;33.30
71564;BMP180;59391;52.504;13.438;2023-06-04T13:26:55;101814.00;;;33.10
71564;BMP180;59391;52.504;13.438;2023-06-04T13:29:21;101808.00;;;32.90
71564;BMP180;59391;52.504;13.438;2023-06-04T13:31:49;101804.00;;;32.60
71564;BMP180;59391;52.504;13.438;2023-06-04T13:34:14;101802.00;;;32.50
71564;BMP180;59391;52.504;13.438;2023-06-04T13:36:40;101805.00;;;32.30
71564;BMP180;59391;52.504;13.438;2023-06-04T13:39:06;101796.00;;;32.10
71564;BMP180;59391;52.504;13.438;2023-06-04T13:41:31;101801.00;;;31.90
71564;BMP180;59391;52.504;13.438;2023-06-04T13:43:57;101802.00;;;31.70
71564;BMP180;59391;52.504;13.438;2023-06-04T13:46:22;101801.00;;;31.50
71564;BMP180;59391;52.504;13.438;2023-06-04T13:48:48;101789.00;;;31.20
71564;BMP180;59391;52.504;13.438;2023-06-04T13:51:14;101788.00;;;30.90